KROC/ROC METAR and TAF weather

Enter ICAO airport designator
Station Type Date Time Source
KROC METAR 2019/02/18 03:54 UTC NOAA

KROC 180354Z 07008KT 1SM R04/6000VP6000FT -SN VV011 M04/M07 A2988 RMK AO2 SLP128 P0003 T10441072


Station Type Date Time Source
KROC Decoded METAR 2019/02/18 03:54 UTC NOAA

GREATER ROCHESTER INTERNATIONAL , NY, United States (KROC) 43-07N 077-41W 178M
Feb 17, 2019 - 10:54 PM EST / 2019.02.18 0354 UTC
Wind: from the ENE (070 degrees) at 9 MPH (8 KT):0
Visibility: 1 mile(s):0
Sky conditions: obscured
Weather: light snow
Precipitation last hour: 0.03 inches
Temperature: 24.1 F (-4.4 C)
Windchill: 14 F (-10 C):1
Dew Point: 19.0 F (-7.2 C)
Relative Humidity: 80%
Pressure (altimeter): 29.88 in. Hg (1011 hPa)
ob: KROC 180354Z 07008KT 1SM R04/6000VP6000FT -SN VV011 M04/M07 A2988 RMK AO2 SLP128 P0003 T10441072
cycle: 4

Station Type Date Time Source
KROC TAF 2019/02/18 03:18 UTC NOAA

TAF
AMD KROC 180314Z 1803/1824 06008KT 1SM -SN OVC025
FM180700 04010G16KT 3SM -SN OVC012
FM181500 35011G18KT 5SM -SN OVC020
FM182000 34010G16KT P6SM OVC020
FM182300 30010KT P6SM OVC130


Example: see airport list